Time;durP1;ratioP1;P1;durP2;ratioP2;P2;SDS_P1;SDS_P2;PMS_P1;PMS_P2;Temp;Humidity;BMP_temperature;BMP_pressure;BME280_temperature;BME280_humidity;BME280_pressure;Samples;Min_cycle;Max_cycle;Signal;HPM_P1;HPM_P2
2022/02/11 00:00:53;;;;;;;10.23;1.63;;;;;;;;;;2067141;28;20124;-66
2022/02/11 00:07:00;;;;;;;8.38;2.42;;;;;;;;;;2067542;28;20034;-66
2022/02/11 00:08:19;;;;;;;10.05;2.15;;;;;;;;;;2067643;28;20038;-66
2022/02/11 00:09:39;;;;;;;8.02;2.00;;;;;;;;;;2066663;28;20062;-65
2022/02/11 00:10:58;;;;;;;7.47;2.10;;;;;;;;;;2068630;28;20492;-65
2022/02/11 00:12:17;;;;;;;18.92;2.50;;;;;;;;;;2065435;28;20701;-66
2022/02/11 00:13:36;;;;;;;13.35;2.17;;;;;;;;;;2066096;28;20034;-66
2022/02/11 00:15:42;;;;;;;14.88;2.13;;;;;;;;;;2068560;28;20035;-66
2022/02/11 00:16:35;;;;;;;11.98;2.33;;;;;;;;;;2071625;28;20037;-66
2022/02/11 00:17:54;;;;;;;10.85;2.38;;;;;;;;;;2067369;28;20030;-66
2022/02/11 00:19:13;;;;;;;6.65;1.80;;;;;;;;;;2067178;28;20438;-66
2022/02/11 00:20:32;;;;;;;12.05;2.28;;;;;;;;;;2066118;28;20022;-66
2022/02/11 00:21:51;;;;;;;16.98;2.47;;;;;;;;;;2066521;28;20109;-66
2022/02/11 00:23:10;;;;;;;12.60;2.58;;;;;;;;;;2065937;28;20034;-66
2022/02/11 00:24:29;;;;;;;11.10;2.65;;;;;;;;;;2071510;28;20073;-66
2022/02/11 00:25:54;;;;;;;11.18;1.77;;;;;;;;;;2069501;28;20034;-66
2022/02/11 00:32:20;;;;;;;11.65;2.15;;;;;;;;;;2067181;28;20023;-66
2022/02/11 00:33:40;;;;;;;8.45;1.83;;;;;;;;;;2067734;28;20101;-66
2022/02/11 00:35:09;;;;;;;9.95;2.08;;;;;;;;;;2067129;28;20026;-66
2022/02/11 00:36:36;;;;;;;14.73;2.28;;;;;;;;;;2066599;28;20139;-65
2022/02/11 00:37:56;;;;;;;11.50;2.30;;;;;;;;;;2066639;28;20031;-65
2022/02/11 01:03:12;;;;;;;7.90;1.95;;;;;;;;;;2065079;28;20023;-67
2022/02/11 01:04:31;;;;;;;7.45;1.65;;;;;;;;;;2066528;28;20065;-66
2022/02/11 01:05:51;;;;;;;6.45;1.60;;;;;;;;;;2066822;28;20080;-66
2022/02/11 01:07:10;;;;;;;6.75;1.90;;;;;;;;;;2067192;28;20504;-65
2022/02/11 01:08:29;;;;;;;11.73;2.63;;;;;;;;;;2066388;28;20039;-64
2022/02/11 01:09:48;;;;;;;10.10;2.03;;;;;;;;;;2066608;28;20524;-65
2022/02/11 01:11:14;;;;;;;11.35;2.03;;;;;;;;;;2068397;28;20033;-66
2022/02/11 01:12:33;;;;;;;14.50;2.33;;;;;;;;;;2067373;28;20034;-65
2022/02/11 01:13:52;;;;;;;8.07;2.10;;;;;;;;;;2068174;28;20027;-65
2022/02/11 01:15:11;;;;;;;13.90;1.80;;;;;;;;;;2068046;28;20034;-66
2022/02/11 01:16:40;;;;;;;10.88;2.10;;;;;;;;;;2068382;28;20030;-65
2022/02/11 01:18:02;;;;;;;10.90;2.15;;;;;;;;;;2069315;28;20026;-65
2022/02/11 01:20:56;;;;;;;8.05;2.03;;;;;;;;;;2067838;28;20054;-65
2022/02/11 01:23:49;;;;;;;7.83;2.40;;;;;;;;;;2067993;28;20072;-66
2022/02/11 01:25:43;;;;;;;13.00;2.40;;;;;;;;;;2068786;28;20236;-65
2022/02/11 01:44:10;;;;;;;7.00;1.98;;;;;;;;;;2068005;28;20315;-66
2022/02/11 01:50:40;;;;;;;8.80;2.03;;;;;;;;;;2067516;28;20105;-65
2022/02/11 01:53:41;;;;;;;10.88;2.15;;;;;;;;;;2067576;28;20153;-65
2022/02/11 01:56:54;;;;;;;11.52;2.53;;;;;;;;;;2066839;28;20039;-65
2022/02/11 02:04:26;;;;;;;9.88;1.50;;;;;;;;;;2067118;28;20038;-65
2022/02/11 02:15:02;;;;;;;8.63;2.13;;;;;;;;;;2067179;28;20033;-65
2022/02/11 02:20:10;;;;;;;18.42;2.42;;;;;;;;;;2067071;28;20030;-66
2022/02/11 02:25:36;;;;;;;6.20;1.83;;;;;;;;;;2069356;28;20068;-65
2022/02/11 02:57:29;;;;;;;5.53;1.00;;;;;;;;;;2067383;28;20025;-66
2022/02/11 02:58:59;;;;;;;6.75;1.80;;;;;;;;;;2066764;28;20041;-65
2022/02/11 03:01:16;;;;;;;9.77;1.65;;;;;;;;;;2065854;28;20030;-65
2022/02/11 03:17:17;;;;;;;7.43;1.42;;;;;;;;;;2067042;28;20510;-65
2022/02/11 03:48:57;;;;;;;3.88;1.10;;;;;;;;;;2067186;28;20034;-65
2022/02/11 04:53:12;;;;;;;6.43;0.90;;;;;;;;;;2067248;28;20105;-66
2022/02/11 04:56:03;;;;;;;8.77;1.38;;;;;;;;;;2067904;28;20042;-66
2022/02/11 05:00:39;;;;;;;5.60;1.05;;;;;;;;;;2067590;28;20029;-66
2022/02/11 05:01:58;;;;;;;6.70;1.27;;;;;;;;;;2068078;28;20064;-66
2022/02/11 05:03:16;;;;;;;9.52;1.25;;;;;;;;;;2068045;28;20046;-66
2022/02/11 05:04:35;;;;;;;3.20;1.13;;;;;;;;;;2068184;28;20124;-66
2022/02/11 05:05:54;;;;;;;4.63;1.48;;;;;;;;;;2068107;28;20034;-66
2022/02/11 05:07:13;;;;;;;6.63;1.95;;;;;;;;;;2068138;28;20030;-64
2022/02/11 05:08:32;;;;;;;7.32;1.30;;;;;;;;;;2068564;28;20117;-64
2022/02/11 05:09:51;;;;;;;7.07;1.45;;;;;;;;;;2068506;28;20050;-64
2022/02/11 05:11:11;;;;;;;2.72;1.27;;;;;;;;;;2067664;28;20038;-64
2022/02/11 05:12:29;;;;;;;4.38;1.15;;;;;;;;;;2066877;28;20038;-65
2022/02/11 05:13:48;;;;;;;4.93;1.00;;;;;;;;;;2068476;28;20031;-66
2022/02/11 05:15:10;;;;;;;5.72;1.48;;;;;;;;;;2068235;28;20026;-65
2022/02/11 05:16:29;;;;;;;7.40;0.95;;;;;;;;;;2068375;28;20380;-65
2022/02/11 05:17:51;;;;;;;4.55;0.98;;;;;;;;;;2067288;28;20113;-67
2022/02/11 05:19:10;;;;;;;4.13;1.63;;;;;;;;;;2068177;28;20030;-67
2022/02/11 05:20:29;;;;;;;5.38;1.27;;;;;;;;;;2070051;28;20030;-67
2022/02/11 05:21:47;;;;;;;3.85;1.10;;;;;;;;;;2067643;28;20474;-69
2022/02/11 05:23:07;;;;;;;4.15;0.90;;;;;;;;;;2105908;28;20038;-66
2022/02/11 05:24:26;;;;;;;4.80;1.25;;;;;;;;;;2084817;28;20062;-66
2022/02/11 05:25:45;;;;;;;6.03;1.40;;;;;;;;;;2067657;28;20030;-67
2022/02/11 05:27:04;;;;;;;5.88;1.45;;;;;;;;;;2066969;28;20034;-66
2022/02/11 05:28:24;;;;;;;2.33;0.90;;;;;;;;;;2068329;28;20030;-66
2022/02/11 05:29:42;;;;;;;3.95;1.17;;;;;;;;;;2067351;28;20043;-66
2022/02/11 05:31:01;;;;;;;3.05;1.15;;;;;;;;;;2068826;28;20113;-67
2022/02/11 05:32:20;;;;;;;5.85;1.13;;;;;;;;;;2067465;28;20117;-66
2022/02/11 05:33:39;;;;;;;7.80;1.13;;;;;;;;;;2073952;28;20106;-68
2022/02/11 05:34:58;;;;;;;6.03;1.27;;;;;;;;;;2068299;28;20112;-67
2022/02/11 05:36:17;;;;;;;4.78;0.90;;;;;;;;;;2067301;28;20519;-67
2022/02/11 05:37:36;;;;;;;5.00;1.33;;;;;;;;;;2068521;28;20105;-67
2022/02/11 05:38:55;;;;;;;8.15;1.10;;;;;;;;;;2067906;28;20673;-67
2022/02/11 05:40:14;;;;;;;3.17;1.52;;;;;;;;;;2068964;28;20034;-67
2022/02/11 05:41:33;;;;;;;4.20;0.98;;;;;;;;;;2068312;28;20026;-66
2022/02/11 05:42:52;;;;;;;12.07;1.58;;;;;;;;;;2067332;28;20037;-66
2022/02/11 05:44:10;;;;;;;1.73;1.02;;;;;;;;;;2071380;28;20062;-66
2022/02/11 05:45:29;;;;;;;5.55;1.20;;;;;;;;;;2063521;28;20521;-66
2022/02/11 05:46:48;;;;;;;6.03;1.67;;;;;;;;;;2067544;28;20401;-66
2022/02/11 05:48:07;;;;;;;2.75;0.90;;;;;;;;;;2066943;28;20070;-66
2022/02/11 05:49:25;;;;;;;2.92;0.90;;;;;;;;;;2068344;28;20395;-67
2022/02/11 05:50:44;;;;;;;2.55;1.40;;;;;;;;;;2068311;28;20500;-67
2022/02/11 05:52:04;;;;;;;6.38;1.15;;;;;;;;;;2067916;28;20605;-66
2022/02/11 05:53:23;;;;;;;3.83;1.30;;;;;;;;;;2068283;28;20038;-66
2022/02/11 05:54:42;;;;;;;2.22;1.20;;;;;;;;;;2067998;28;20030;-66
2022/02/11 05:56:01;;;;;;;1.08;0.57;;;;;;;;;;2067346;28;20034;-67
2022/02/11 05:57:19;;;;;;;3.90;1.20;;;;;;;;;;2068930;28;20042;-66
2022/02/11 05:58:38;;;;;;;5.18;1.00;;;;;;;;;;2066301;28;20042;-69
2022/02/11 05:59:59;;;;;;;6.38;1.30;;;;;;;;;;2068209;28;20026;-67
2022/02/11 06:01:18;;;;;;;4.80;1.40;;;;;;;;;;2067223;28;20034;-66
2022/02/11 06:02:36;;;;;;;2.05;0.90;;;;;;;;;;2065207;28;20026;-66
2022/02/11 06:03:55;;;;;;;5.38;1.10;;;;;;;;;;2068029;28;20026;-66
2022/02/11 06:05:16;;;;;;;2.83;0.65;;;;;;;;;;2068709;28;20026;-66
2022/02/11 06:06:35;;;;;;;5.28;1.08;;;;;;;;;;2068260;28;20117;-67
2022/02/11 06:07:54;;;;;;;2.60;0.88;;;;;;;;;;2067627;28;20034;-67
2022/02/11 06:09:13;;;;;;;5.88;1.15;;;;;;;;;;2067834;28;20496;-66
2022/02/11 06:10:35;;;;;;;5.85;1.60;;;;;;;;;;2066151;28;20454;-66
2022/02/11 06:11:54;;;;;;;1.60;0.80;;;;;;;;;;2066881;28;20034;-66
2022/02/11 06:13:13;;;;;;;2.22;0.80;;;;;;;;;;2065637;28;20046;-66
2022/02/11 06:14:33;;;;;;;4.40;1.10;;;;;;;;;;2066921;28;20549;-66
2022/02/11 06:15:53;;;;;;;3.65;1.17;;;;;;;;;;2066597;28;20030;-66
2022/02/11 06:17:11;;;;;;;5.47;0.70;;;;;;;;;;2067507;28;20368;-67
2022/02/11 06:18:30;;;;;;;4.75;1.08;;;;;;;;;;2066437;28;20030;-67
2022/02/11 06:19:50;;;;;;;4.85;1.20;;;;;;;;;;2065840;28;20030;-66
2022/02/11 06:21:09;;;;;;;2.00;0.80;;;;;;;;;;2067086;28;20034;-67
2022/02/11 06:22:28;;;;;;;3.55;1.00;;;;;;;;;;2067326;28;20030;-67
2022/02/11 06:23:49;;;;;;;2.63;0.90;;;;;;;;;;2066321;28;20493;-67
2022/02/11 06:25:08;;;;;;;1.10;0.40;;;;;;;;;;2066359;28;20031;-67
2022/02/11 06:26:27;;;;;;;5.10;0.90;;;;;;;;;;2069350;28;20439;-67
2022/02/11 06:27:46;;;;;;;3.08;0.90;;;;;;;;;;2065638;28;20443;-67
2022/02/11 06:29:05;;;;;;;3.10;1.17;;;;;;;;;;2066717;28;20038;-67
2022/02/11 06:30:23;;;;;;;2.90;0.88;;;;;;;;;;2066200;28;20031;-67
2022/02/11 06:31:42;;;;;;;2.85;1.20;;;;;;;;;;2066754;28;20056;-67
2022/02/11 06:33:02;;;;;;;2.58;1.00;;;;;;;;;;2071465;28;20031;-66
2022/02/11 06:34:21;;;;;;;5.03;1.17;;;;;;;;;;2067130;28;20395;-64
2022/02/11 06:35:44;;;;;;;1.88;0.70;;;;;;;;;;2066912;28;20057;-64
2022/02/11 06:37:03;;;;;;;1.90;0.90;;;;;;;;;;2068044;28;20615;-64
2022/02/11 06:38:22;;;;;;;3.70;0.68;;;;;;;;;;2067080;28;20035;-65
2022/02/11 06:39:41;;;;;;;1.73;0.75;;;;;;;;;;2067409;28;20030;-65
2022/02/11 06:41:00;;;;;;;4.00;0.80;;;;;;;;;;2067544;28;20026;-65
2022/02/11 06:42:19;;;;;;;7.38;1.63;;;;;;;;;;2068403;28;20030;-66
2022/02/11 06:43:38;;;;;;;6.72;1.05;;;;;;;;;;2065824;28;20392;-66
2022/02/11 06:44:58;;;;;;;0.88;0.70;;;;;;;;;;2065602;28;20021;-66
2022/02/11 06:46:17;;;;;;;3.67;0.98;;;;;;;;;;2066975;28;20408;-65
2022/02/11 06:47:36;;;;;;;2.78;0.63;;;;;;;;;;2068489;28;20026;-66
2022/02/11 06:48:55;;;;;;;3.58;0.90;;;;;;;;;;2066420;28;20038;-67
2022/02/11 06:50:14;;;;;;;3.78;1.15;;;;;;;;;;2066642;28;20022;-65
2022/02/11 06:51:33;;;;;;;3.55;0.93;;;;;;;;;;2066855;28;20038;-65
2022/02/11 06:52:55;;;;;;;2.40;0.80;;;;;;;;;;2067445;28;20053;-65
2022/02/11 06:54:14;;;;;;;2.00;0.95;;;;;;;;;;2065449;28;20124;-65
2022/02/11 06:55:33;;;;;;;4.72;0.80;;;;;;;;;;2067467;28;20062;-66
2022/02/11 06:56:52;;;;;;;2.35;1.05;;;;;;;;;;2067175;28;20034;-65
2022/02/11 06:58:10;;;;;;;0.82;0.70;;;;;;;;;;2066418;28;20106;-65
2022/02/11 06:59:30;;;;;;;4.32;0.77;;;;;;;;;;2065915;28;20030;-65
2022/02/11 07:00:49;;;;;;;2.08;0.80;;;;;;;;;;2066521;28;20038;-66
2022/02/11 07:02:16;;;;;;;4.50;0.80;;;;;;;;;;2067742;28;20022;-65
2022/02/11 07:03:35;;;;;;;2.40;0.77;;;;;;;;;;2068758;28;20027;-65
2022/02/11 07:04:54;;;;;;;2.90;0.80;;;;;;;;;;2067575;28;20031;-65
2022/02/11 07:06:13;;;;;;;4.30;0.93;;;;;;;;;;2067263;28;20057;-64
2022/02/11 07:07:31;;;;;;;4.32;1.35;;;;;;;;;;2066994;28;20518;-65
2022/02/11 07:08:51;;;;;;;1.35;0.90;;;;;;;;;;2067496;28;20038;-65
2022/02/11 07:10:11;;;;;;;1.63;0.80;;;;;;;;;;2065783;28;20404;-64
2022/02/11 07:11:30;;;;;;;3.42;0.90;;;;;;;;;;2066309;28;20521;-64
2022/02/11 07:12:49;;;;;;;1.50;0.90;;;;;;;;;;2067189;28;20066;-64
2022/02/11 07:14:11;;;;;;;1.98;0.55;;;;;;;;;;2066534;28;20113;-64
2022/02/11 07:15:34;;;;;;;3.10;1.00;;;;;;;;;;2067897;28;20030;-65
2022/02/11 07:16:54;;;;;;;3.72;0.90;;;;;;;;;;2067073;28;20030;-64
2022/02/11 07:18:13;;;;;;;3.10;1.02;;;;;;;;;;2065774;28;20077;-64
2022/02/11 07:19:34;;;;;;;1.17;0.70;;;;;;;;;;2065852;28;20042;-64
2022/02/11 07:20:56;;;;;;;1.50;0.80;;;;;;;;;;2068114;28;20661;-64
2022/02/11 07:22:16;;;;;;;2.95;0.75;;;;;;;;;;2067211;28;20149;-65
2022/02/11 07:23:35;;;;;;;3.42;0.90;;;;;;;;;;2067068;28;20049;-65
2022/02/11 07:24:55;;;;;;;3.42;0.65;;;;;;;;;;2067057;28;20030;-65
2022/02/11 07:26:14;;;;;;;4.05;1.20;;;;;;;;;;2067253;28;20034;-65
2022/02/11 07:27:33;;;;;;;5.30;1.15;;;;;;;;;;2065558;28;20046;-65
2022/02/11 07:28:52;;;;;;;2.17;1.15;;;;;;;;;;2066451;28;20034;-65
2022/02/11 07:30:12;;;;;;;2.05;1.30;;;;;;;;;;2067390;28;20045;-65
2022/02/11 07:31:30;;;;;;;1.98;0.90;;;;;;;;;;2067304;28;20492;-65
2022/02/11 07:32:51;;;;;;;3.05;0.88;;;;;;;;;;2067850;28;20038;-65
2022/02/11 07:34:11;;;;;;;4.28;1.52;;;;;;;;;;2066350;28;20101;-65
2022/02/11 07:35:30;;;;;;;2.15;1.00;;;;;;;;;;2066668;28;20050;-65
2022/02/11 07:36:49;;;;;;;4.40;0.88;;;;;;;;;;2067375;28;20030;-66
2022/02/11 07:38:07;;;;;;;2.75;1.08;;;;;;;;;;2066681;28;20500;-64
2022/02/11 07:39:28;;;;;;;2.40;1.20;;;;;;;;;;2067723;28;20030;-65
2022/02/11 07:40:48;;;;;;;5.18;1.33;;;;;;;;;;2065787;28;20026;-65
2022/02/11 07:42:07;;;;;;;6.55;1.15;;;;;;;;;;2067290;28;20022;-65
2022/02/11 07:43:26;;;;;;;1.25;0.93;;;;;;;;;;2068155;28;20054;-64
2022/02/11 07:44:44;;;;;;;3.17;1.13;;;;;;;;;;2066243;28;20030;-65
2022/02/11 07:46:04;;;;;;;6.22;1.02;;;;;;;;;;2066719;28;20052;-65
2022/02/11 07:47:29;;;;;;;2.08;0.82;;;;;;;;;;2066976;28;20510;-64
2022/02/11 07:48:48;;;;;;;4.88;1.17;;;;;;;;;;2068048;28;20037;-65
2022/02/11 07:50:07;;;;;;;5.50;0.90;;;;;;;;;;2071036;28;20026;-65
2022/02/11 07:51:26;;;;;;;3.40;0.73;;;;;;;;;;2066021;28;20505;-65
2022/02/11 07:52:45;;;;;;;2.42;0.57;;;;;;;;;;2065551;28;20038;-65
2022/02/11 07:54:04;;;;;;;1.13;0.60;;;;;;;;;;2067981;28;20022;-65
2022/02/11 07:55:23;;;;;;;1.85;0.75;;;;;;;;;;2062397;28;20034;-65
2022/02/11 07:56:42;;;;;;;4.28;0.95;;;;;;;;;;2067453;28;20034;-64
2022/02/11 07:58:01;;;;;;;3.22;1.05;;;;;;;;;;2066713;28;20511;-65
2022/02/11 07:59:20;;;;;;;4.13;1.13;;;;;;;;;;2065816;28;20109;-65
2022/02/11 08:00:39;;;;;;;1.33;0.45;;;;;;;;;;2065760;28;20026;-65
2022/02/11 08:01:58;;;;;;;1.95;0.75;;;;;;;;;;2067776;28;20026;-65
2022/02/11 08:03:18;;;;;;;1.63;0.70;;;;;;;;;;2066904;28;20035;-65
2022/02/11 08:04:37;;;;;;;2.70;0.90;;;;;;;;;;2066529;28;20030;-65
2022/02/11 08:05:56;;;;;;;1.75;0.60;;;;;;;;;;2065972;28;20388;-65
2022/02/11 08:07:16;;;;;;;4.15;0.68;;;;;;;;;;2062233;28;20046;-65
2022/02/11 08:08:34;;;;;;;5.32;0.75;;;;;;;;;;2066732;28;20030;-65
2022/02/11 08:09:54;;;;;;;4.22;0.57;;;;;;;;;;2065646;28;20482;-65
2022/02/11 08:11:12;;;;;;;2.92;0.88;;;;;;;;;;2065062;28;20023;-65
2022/02/11 08:12:34;;;;;;;4.70;0.80;;;;;;;;;;2066228;28;20038;-65
2022/02/11 08:13:53;;;;;;;1.98;0.70;;;;;;;;;;2065756;28;20030;-65
2022/02/11 08:15:12;;;;;;;2.80;0.73;;;;;;;;;;2068483;28;20054;-64
2022/02/11 08:16:31;;;;;;;2.25;0.75;;;;;;;;;;2066685;28;20066;-64
2022/02/11 08:17:50;;;;;;;1.20;0.70;;;;;;;;;;2067068;28;20417;-65
2022/02/11 08:19:09;;;;;;;2.05;0.70;;;;;;;;;;2065367;28;20062;-65
2022/02/11 08:20:28;;;;;;;1.95;0.57;;;;;;;;;;2062304;28;20034;-65
2022/02/11 08:21:47;;;;;;;5.45;0.90;;;;;;;;;;2065774;28;20361;-66
2022/02/11 08:23:06;;;;;;;2.80;0.70;;;;;;;;;;2064520;28;20038;-65
2022/02/11 08:24:25;;;;;;;2.08;0.60;;;;;;;;;;2067695;28;20433;-66
2022/02/11 08:25:44;;;;;;;2.83;0.95;;;;;;;;;;2067680;28;20045;-66
2022/02/11 08:27:03;;;;;;;2.67;1.23;;;;;;;;;;2067619;28;20021;-65
2022/02/11 08:28:22;;;;;;;2.13;0.73;;;;;;;;;;2067493;28;20121;-66
2022/02/11 08:29:41;;;;;;;2.90;0.75;;;;;;;;;;2067499;28;20453;-65
2022/02/11 08:31:00;;;;;;;1.58;0.70;;;;;;;;;;2070993;28;20030;-65
2022/02/11 08:32:21;;;;;;;5.88;0.65;;;;;;;;;;2069946;28;20030;-66
2022/02/11 08:33:40;;;;;;;1.17;0.50;;;;;;;;;;2067490;28;20082;-66
2022/02/11 08:34:59;;;;;;;1.42;0.68;;;;;;;;;;2067574;28;20026;-66
2022/02/11 08:36:19;;;;;;;1.77;0.80;;;;;;;;;;2067920;28;20042;-66
2022/02/11 08:37:38;;;;;;;2.38;0.75;;;;;;;;;;2068270;28;20026;-65
2022/02/11 08:38:57;;;;;;;2.58;0.55;;;;;;;;;;2068087;28;20030;-66
2022/02/11 08:40:16;;;;;;;5.50;0.50;;;;;;;;;;2068836;28;20109;-65
2022/02/11 08:41:35;;;;;;;1.88;0.57;;;;;;;;;;2068215;28;20085;-66
2022/02/11 08:42:54;;;;;;;4.35;0.80;;;;;;;;;;2066447;28;20061;-65
2022/02/11 08:44:13;;;;;;;2.92;0.50;;;;;;;;;;2065334;28;20026;-66
2022/02/11 08:45:36;;;;;;;2.90;0.63;;;;;;;;;;2070196;28;20104;-64
2022/02/11 08:46:55;;;;;;;1.80;0.63;;;;;;;;;;2068237;28;20019;-65
2022/02/11 08:48:15;;;;;;;0.95;0.25;;;;;;;;;;2068193;28;20037;-65
2022/02/11 08:49:34;;;;;;;4.75;0.40;;;;;;;;;;2067333;28;20030;-65
2022/02/11 08:50:53;;;;;;;2.38;0.50;;;;;;;;;;2066494;28;20508;-64
2022/02/11 08:52:11;;;;;;;1.20;0.60;;;;;;;;;;2071550;28;20559;-64
2022/02/11 08:53:31;;;;;;;1.70;0.60;;;;;;;;;;2067957;28;20030;-65
2022/02/11 08:54:50;;;;;;;0.82;0.60;;;;;;;;;;2069422;28;20027;-65
2022/02/11 08:56:09;;;;;;;1.75;0.38;;;;;;;;;;2066313;28;20172;-65
2022/02/11 08:57:29;;;;;;;1.50;0.40;;;;;;;;;;2068341;28;20488;-65
2022/02/11 08:58:48;;;;;;;1.15;0.50;;;;;;;;;;2067997;28;20030;-67
2022/02/11 09:00:07;;;;;;;1.95;1.00;;;;;;;;;;2067444;28;20018;-67
2022/02/11 09:01:26;;;;;;;5.03;0.70;;;;;;;;;;2068058;28;20039;-66
2022/02/11 09:02:45;;;;;;;2.38;0.60;;;;;;;;;;2067144;28;20480;-66
2022/02/11 09:04:04;;;;;;;1.40;0.60;;;;;;;;;;2068572;28;20069;-66
2022/02/11 09:05:24;;;;;;;4.38;0.60;;;;;;;;;;2066756;28;20034;-67
2022/02/11 09:06:43;;;;;;;0.93;0.85;;;;;;;;;;2068147;28;20121;-64
2022/02/11 09:08:02;;;;;;;4.03;0.45;;;;;;;;;;2068061;28;20026;-66
2022/02/11 09:09:21;;;;;;;2.78;0.85;;;;;;;;;;2067345;28;20030;-66
2022/02/11 09:10:40;;;;;;;3.97;0.70;;;;;;;;;;2067038;28;20042;-64
2022/02/11 09:11:59;;;;;;;3.13;0.95;;;;;;;;;;2067323;28;20034;-67
2022/02/11 09:13:18;;;;;;;1.52;0.80;;;;;;;;;;2067860;28;20038;-66
2022/02/11 09:14:37;;;;;;;1.45;0.60;;;;;;;;;;2068507;28;20042;-67
2022/02/11 09:15:56;;;;;;;1.83;0.35;;;;;;;;;;2068302;28;20477;-66
2022/02/11 09:17:15;;;;;;;0.30;0.20;;;;;;;;;;2067781;28;20479;-66
2022/02/11 09:18:36;;;;;;;1.40;0.60;;;;;;;;;;2068271;28;20030;-67
2022/02/11 09:19:55;;;;;;;1.60;0.70;;;;;;;;;;2067914;28;20552;-66
2022/02/11 09:21:14;;;;;;;6.50;0.98;;;;;;;;;;2067443;28;20030;-66
2022/02/11 09:22:33;;;;;;;2.47;0.60;;;;;;;;;;2067110;28;20034;-66
2022/02/11 09:23:52;;;;;;;2.25;0.40;;;;;;;;;;2067635;28;20408;-67
2022/02/11 09:25:12;;;;;;;3.03;0.70;;;;;;;;;;2068164;28;20033;-66
2022/02/11 09:26:31;;;;;;;2.72;0.65;;;;;;;;;;2067640;28;20408;-66
2022/02/11 09:27:49;;;;;;;1.13;0.50;;;;;;;;;;2066773;28;20030;-66
2022/02/11 09:29:08;;;;;;;0.55;0.40;;;;;;;;;;2068209;28;20030;-66
2022/02/11 09:30:27;;;;;;;3.38;0.55;;;;;;;;;;2067453;28;20112;-66
2022/02/11 09:31:47;;;;;;;2.75;0.45;;;;;;;;;;2066582;28;20030;-66
2022/02/11 09:33:08;;;;;;;1.27;0.50;;;;;;;;;;2065825;28;20531;-66
2022/02/11 09:34:27;;;;;;;5.80;0.63;;;;;;;;;;2066736;28;20515;-65
2022/02/11 09:35:47;;;;;;;0.90;0.40;;;;;;;;;;2066796;28;20388;-66
2022/02/11 09:37:06;;;;;;;1.35;0.50;;;;;;;;;;2066795;28;20440;-65
2022/02/11 09:38:25;;;;;;;1.77;0.65;;;;;;;;;;2067643;28;20058;-65
2022/02/11 09:39:45;;;;;;;7.60;1.15;;;;;;;;;;2067176;28;20492;-65
2022/02/11 09:41:04;;;;;;;3.22;0.80;;;;;;;;;;2065661;28;20026;-65
2022/02/11 09:42:23;;;;;;;5.03;0.68;;;;;;;;;;2067706;28;20496;-66
2022/02/11 09:43:42;;;;;;;4.00;0.77;;;;;;;;;;2067221;28;20460;-65
2022/02/11 09:45:01;;;;;;;2.35;0.80;;;;;;;;;;2068368;28;20109;-66
2022/02/11 09:46:21;;;;;;;10.25;1.45;;;;;;;;;;2067019;28;20784;-66
2022/02/11 09:47:40;;;;;;;10.68;1.30;;;;;;;;;;2067902;28;20061;-64
2022/02/11 09:48:59;;;;;;;0.43;0.15;;;;;;;;;;2067027;28;20030;-65
2022/02/11 09:50:20;;;;;;;9.35;0.70;;;;;;;;;;2066386;28;20492;-65
2022/02/11 09:51:39;;;;;;;3.15;0.80;;;;;;;;;;2066420;28;20026;-66
2022/02/11 09:52:58;;;;;;;2.97;1.02;;;;;;;;;;2069698;28;20030;-65
2022/02/11 09:54:18;;;;;;;5.80;1.08;;;;;;;;;;2068277;28;20030;-65
2022/02/11 09:55:40;;;;;;;2.58;0.80;;;;;;;;;;2068648;28;20117;-65
2022/02/11 09:56:59;;;;;;;1.60;0.70;;;;;;;;;;2065213;28;20113;-66
2022/02/11 09:58:18;;;;;;;8.10;0.65;;;;;;;;;;2067670;28;20070;-65
2022/02/11 09:59:37;;;;;;;3.00;0.68;;;;;;;;;;2066101;28;20026;-65
2022/02/11 10:00:56;;;;;;;2.28;0.50;;;;;;;;;;2066082;28;20585;-66
2022/02/11 10:02:16;;;;;;;11.50;1.20;;;;;;;;;;2066541;28;20065;-66
2022/02/11 10:03:35;;;;;;;2.85;0.88;;;;;;;;;;2067467;28;20107;-66
2022/02/11 10:04:55;;;;;;;2.05;1.58;;;;;;;;;;2067711;28;20015;-66
2022/02/11 10:06:16;;;;;;;6.38;1.20;;;;;;;;;;2066960;28;20094;-66
2022/02/11 10:07:45;;;;;;;3.85;0.95;;;;;;;;;;2067116;28;20999;-65
2022/02/11 10:09:05;;;;;;;1.85;0.40;;;;;;;;;;2071045;28;20472;-66
2022/02/11 10:10:40;;;;;;;8.55;1.30;;;;;;;;;;2069463;28;20492;-65
2022/02/11 10:11:59;;;;;;;3.17;0.60;;;;;;;;;;2070612;28;20098;-66
2022/02/11 10:13:25;;;;;;;2.47;0.93;;;;;;;;;;2067430;28;20031;-66
2022/02/11 10:14:44;;;;;;;2.95;0.95;;;;;;;;;;2067224;28;20026;-66
2022/02/11 10:16:10;;;;;;;1.88;0.40;;;;;;;;;;2065926;28;20087;-66
2022/02/11 10:17:32;;;;;;;4.47;0.80;;;;;;;;;;2066921;28;20030;-66
2022/02/11 10:18:53;;;;;;;2.08;0.73;;;;;;;;;;2068362;28;20038;-66
2022/02/11 10:20:12;;;;;;;8.82;1.05;;;;;;;;;;2067701;28;20023;-64
2022/02/11 10:21:34;;;;;;;11.10;1.40;;;;;;;;;;2066619;28;20042;-65
2022/02/11 10:23:01;;;;;;;3.22;1.05;;;;;;;;;;2066083;28;20396;-65
2022/02/11 10:24:30;;;;;;;6.28;1.65;;;;;;;;;;2066508;28;20488;-65
2022/02/11 10:25:55;;;;;;;9.15;1.38;;;;;;;;;;2068237;28;20046;-64
2022/02/11 10:27:15;;;;;;;15.80;1.42;;;;;;;;;;2066541;28;20027;-64
2022/02/11 10:28:35;;;;;;;6.78;1.52;;;;;;;;;;2067269;28;20113;-64
2022/02/11 10:29:59;;;;;;;1.80;0.77;;;;;;;;;;2068179;28;20034;-65
2022/02/11 10:31:23;;;;;;;5.63;0.82;;;;;;;;;;2067378;28;20392;-65
2022/02/11 10:32:46;;;;;;;1.80;0.50;;;;;;;;;;2068176;28;20026;-64
2022/02/11 10:34:07;;;;;;;4.95;0.88;;;;;;;;;;2067366;28;20018;-64
2022/02/11 10:35:27;;;;;;;6.32;0.98;;;;;;;;;;2066987;28;20495;-66
2022/02/11 10:36:48;;;;;;;3.72;0.77;;;;;;;;;;2067149;28;20480;-66
2022/02/11 10:38:08;;;;;;;4.38;0.93;;;;;;;;;;2064911;28;20552;-66
2022/02/11 10:39:30;;;;;;;2.42;0.77;;;;;;;;;;2068169;28;20023;-65
2022/02/11 10:40:49;;;;;;;7.93;0.85;;;;;;;;;;2066535;28;20023;-66
2022/02/11 10:42:12;;;;;;;1.63;0.38;;;;;;;;;;2067298;28;20026;-66
2022/02/11 10:43:31;;;;;;;0.82;0.60;;;;;;;;;;2065831;28;20027;-66
2022/02/11 10:44:50;;;;;;;11.38;0.47;;;;;;;;;;2066866;28;20494;-65
2022/02/11 10:46:15;;;;;;;13.40;0.90;;;;;;;;;;2068888;28;20026;-66
2022/02/11 10:47:34;;;;;;;15.13;1.35;;;;;;;;;;2067305;28;20034;-65
2022/02/11 10:48:53;;;;;;;9.98;0.88;;;;;;;;;;2067098;28;20528;-66
2022/02/11 10:50:12;;;;;;;12.32;1.15;;;;;;;;;;2064298;28;20034;-66
2022/02/11 10:51:31;;;;;;;0.65;0.50;;;;;;;;;;2066481;28;20042;-65
2022/02/11 10:52:51;;;;;;;7.32;0.70;;;;;;;;;;2067189;28;20069;-66
2022/02/11 10:54:26;;;;;;;4.75;0.55;;;;;;;;;;2066633;28;20480;-66
2022/02/11 10:55:49;;;;;;;4.05;0.90;;;;;;;;;;2066601;28;20030;-66
2022/02/11 10:57:10;;;;;;;4.78;0.75;;;;;;;;;;2066918;28;20031;-66
2022/02/11 10:58:32;;;;;;;4.35;0.45;;;;;;;;;;2068268;28;20030;-66
2022/02/11 10:59:51;;;;;;;13.43;1.30;;;;;;;;;;2068132;28;20030;-65
2022/02/11 11:01:10;;;;;;;3.35;0.93;;;;;;;;;;2066165;28;20018;-66
2022/02/11 11:02:29;;;;;;;12.60;0.95;;;;;;;;;;2064757;28;20030;-65
2022/02/11 11:03:48;;;;;;;6.25;0.90;;;;;;;;;;2067429;28;20547;-66
2022/02/11 11:05:09;;;;;;;12.45;1.73;;;;;;;;;;2066934;28;20035;-66
2022/02/11 11:06:29;;;;;;;3.70;0.73;;;;;;;;;;2067429;28;20030;-65
2022/02/11 11:07:48;;;;;;;4.25;0.68;;;;;;;;;;2066331;28;20428;-65
2022/02/11 11:09:07;;;;;;;13.20;0.85;;;;;;;;;;2066731;28;20084;-66
2022/02/11 11:10:26;;;;;;;4.55;0.68;;;;;;;;;;2066901;28;20034;-66
2022/02/11 11:11:46;;;;;;;4.22;0.57;;;;;;;;;;2065317;28;20039;-65
2022/02/11 11:13:06;;;;;;;2.78;0.95;;;;;;;;;;2066077;28;20414;-66
2022/02/11 11:14:25;;;;;;;7.43;0.93;;;;;;;;;;2066310;28;20034;-65
2022/02/11 11:15:44;;;;;;;4.68;0.88;;;;;;;;;;2065981;28;20032;-67
2022/02/11 11:17:03;;;;;;;14.35;1.52;;;;;;;;;;2062666;28;20101;-66
2022/02/11 11:18:22;;;;;;;7.47;1.05;;;;;;;;;;2070927;28;20034;-65
2022/02/11 11:19:41;;;;;;;5.53;1.50;;;;;;;;;;2066939;28;20084;-65
2022/02/11 11:21:00;;;;;;;6.50;0.88;;;;;;;;;;2066154;28;20022;-66
2022/02/11 11:22:27;;;;;;;3.65;0.55;;;;;;;;;;2064873;28;20030;-65
2022/02/11 11:23:56;;;;;;;9.13;0.70;;;;;;;;;;2065435;28;20038;-65
2022/02/11 11:25:16;;;;;;;4.63;0.77;;;;;;;;;;2066168;28;20393;-64
2022/02/11 11:26:36;;;;;;;3.95;0.60;;;;;;;;;;2065290;28;20042;-66
2022/02/11 11:27:57;;;;;;;6.85;0.77;;;;;;;;;;2065729;28;20025;-66
2022/02/11 11:29:18;;;;;;;3.53;0.70;;;;;;;;;;2065525;28;20023;-67
2022/02/11 11:30:38;;;;;;;16.08;1.52;;;;;;;;;;2067549;28;20026;-66
2022/02/11 11:31:58;;;;;;;9.23;1.55;;;;;;;;;;2066299;28;20578;-67
2022/02/11 11:33:19;;;;;;;9.57;1.00;;;;;;;;;;2066576;28;20046;-66
2022/02/11 11:34:39;;;;;;;17.25;1.88;;;;;;;;;;2067267;28;20447;-64
2022/02/11 11:36:00;;;;;;;10.02;1.10;;;;;;;;;;2065889;28;20038;-67
2022/02/11 11:37:19;;;;;;;9.70;1.05;;;;;;;;;;2069305;28;20061;-66
2022/02/11 11:38:45;;;;;;;11.73;1.00;;;;;;;;;;2065913;28;20033;-66
2022/02/11 11:40:22;;;;;;;2.90;0.40;;;;;;;;;;2066340;28;20046;-66
2022/02/11 11:41:41;;;;;;;9.55;1.55;;;;;;;;;;2068264;28;20042;-66
2022/02/11 11:43:13;;;;;;;2.20;0.65;;;;;;;;;;2066431;28;20496;-65
2022/02/11 11:44:42;;;;;;;11.23;1.25;;;;;;;;;;2067742;28;20046;-66
2022/02/11 11:46:21;;;;;;;3.72;0.70;;;;;;;;;;2067434;28;20042;-65
2022/02/11 11:47:43;;;;;;;8.75;1.27;;;;;;;;;;2067165;28;20034;-65
2022/02/11 11:49:05;;;;;;;3.03;0.90;;;;;;;;;;2069023;28;20030;-64
2022/02/11 11:50:30;;;;;;;7.77;0.90;;;;;;;;;;2066771;28;20061;-64